Time;durP1;ratioP1;P1;durP2;ratioP2;P2;SDS_P1;SDS_P2;PMS_P1;PMS_P2;Temp;Humidity;BMP_temperature;BMP_pressure;BME280_temperature;BME280_humidity;BME280_pressure;Samples;Min_cycle;Max_cycle;Signal;HPM_P1;HPM_P2
2021/09/30 00:00:39;;;;;;;0.60;0.60;;;17.90;65.80;;;;;;5056570;28;20684;-69
2021/09/30 00:03:05;;;;;;;0.60;0.60;;;17.90;65.80;;;;;;5055190;28;20205;-70
2021/09/30 00:05:31;;;;;;;0.70;0.63;;;17.90;65.80;;;;;;5056114;28;20167;-69
2021/09/30 00:07:56;;;;;;;1.08;0.75;;;17.90;65.80;;;;;;5055316;28;20207;-69
2021/09/30 00:10:23;;;;;;;0.65;0.65;;;17.90;65.80;;;;;;5056000;28;20175;-68
2021/09/30 00:16:04;;;;;;;0.50;0.50;;;17.90;65.80;;;;;;5046945;28;20191;-68
2021/09/30 00:35:03;;;;;;;0.65;0.65;;;17.80;65.80;;;;;;5055187;28;20178;-69
2021/09/30 00:40:27;;;;;;;1.27;0.70;;;17.80;65.80;;;;;;5055620;28;20680;-69
2021/09/30 00:45:43;;;;;;;1.08;0.70;;;17.80;65.80;;;;;;5055378;28;20580;-69
2021/09/30 00:51:05;;;;;;;0.73;0.55;;;17.80;65.80;;;;;;5054426;28;20210;-68
2021/09/30 01:30:44;;;;;;;1.17;0.60;;;17.70;65.90;;;;;;5053554;28;20545;-70
2021/09/30 02:23:32;;;;;;;0.60;0.57;;;17.60;65.80;;;;;;5051330;28;20284;-66
2021/09/30 02:28:47;;;;;;;0.60;0.60;;;17.60;65.80;;;;;;5052288;28;20207;-69
2021/09/30 02:58:31;;;;;;;1.20;0.70;;;17.50;65.80;;;;;;5051567;28;20174;-70
2021/09/30 03:01:16;;;;;;;1.05;0.75;;;17.50;65.80;;;;;;5051732;28;20208;-70
2021/09/30 03:03:42;;;;;;;2.17;0.65;;;17.50;66.70;;;;;;5052979;28;20167;-70
2021/09/30 03:06:07;;;;;;;1.98;0.90;;;17.50;65.80;;;;;;5050547;28;20676;-70
2021/09/30 03:08:41;;;;;;;1.60;0.65;;;17.50;65.80;;;;;;5051645;28;20179;-69
2021/09/30 03:11:06;;;;;;;1.27;0.65;;;17.50;65.80;;;;;;5050737;28;20170;-69
2021/09/30 03:13:32;;;;;;;2.47;0.93;;;17.50;65.80;;;;;;5052740;28;20582;-68
2021/09/30 03:16:05;;;;;;;1.58;0.85;;;17.50;65.80;;;;;;5051421;28;20179;-69
2021/09/30 03:23:28;;;;;;;1.20;0.82;;;17.50;65.80;;;;;;5055475;28;20218;-67
2021/09/30 03:25:54;;;;;;;0.50;0.50;;;17.50;65.80;;;;;;5054873;28;20178;-68
2021/09/30 03:28:23;;;;;;;0.82;0.80;;;17.50;65.80;;;;;;5055403;28;20242;-67
2021/09/30 03:30:48;;;;;;;1.98;0.70;;;17.50;65.80;;;;;;5055187;28;20668;-70
2021/09/30 03:33:14;;;;;;;2.22;1.00;;;17.50;65.80;;;;;;5055928;28;20186;-69
2021/09/30 03:35:40;;;;;;;1.02;0.70;;;17.40;65.70;;;;;;5055440;28;20175;-69
2021/09/30 03:38:06;;;;;;;0.80;0.70;;;17.40;65.70;;;;;;5056198;28;20185;-69
2021/09/30 03:40:32;;;;;;;1.92;0.75;;;17.50;65.80;;;;;;5055701;28;20577;-69
2021/09/30 03:42:57;;;;;;;1.20;0.88;;;17.40;66.10;;;;;;5056423;28;20175;-69
2021/09/30 03:45:23;;;;;;;1.02;0.85;;;17.40;65.70;;;;;;5056653;28;20650;-68
2021/09/30 03:47:48;;;;;;;0.77;0.77;;;17.40;65.80;;;;;;5055516;28;20218;-69
2021/09/30 03:50:20;;;;;;;0.80;0.80;;;17.40;65.80;;;;;;5056595;28;20283;-68
2021/09/30 03:55:40;;;;;;;2.13;0.93;;;17.40;65.80;;;;;;5055744;28;20163;-67
2021/09/30 04:00:49;;;;;;;2.00;0.85;;;17.40;65.70;;;;;;5055225;28;20232;-68
2021/09/30 04:03:15;;;;;;;1.25;0.77;;;17.40;65.80;;;;;;5056071;28;20262;-69
2021/09/30 04:05:41;;;;;;;1.65;0.80;;;17.40;65.70;;;;;;5056262;28;20218;-68
2021/09/30 04:08:06;;;;;;;0.95;0.70;;;17.40;65.70;;;;;;5055134;28;20279;-67
2021/09/30 04:10:32;;;;;;;1.77;1.00;;;17.40;65.70;;;;;;5056341;28;20654;-67
2021/09/30 04:12:57;;;;;;;1.35;0.77;;;17.40;65.80;;;;;;5055921;28;20272;-67
2021/09/30 04:15:23;;;;;;;1.48;0.63;;;17.40;65.70;;;;;;5055280;28;20197;-67
2021/09/30 04:17:48;;;;;;;2.78;0.90;;;17.40;65.80;;;;;;5055510;28;20629;-67
2021/09/30 04:20:16;;;;;;;1.42;0.80;;;17.40;65.80;;;;;;5055890;28;20175;-67
2021/09/30 04:22:43;;;;;;;2.45;1.17;;;17.40;65.80;;;;;;5054993;28;20231;-67
2021/09/30 04:25:09;;;;;;;1.33;0.82;;;17.30;65.80;;;;;;5055426;28;20572;-68
2021/09/30 04:27:34;;;;;;;1.33;0.90;;;17.30;65.70;;;;;;5055583;28;20211;-68
2021/09/30 04:30:00;;;;;;;1.27;1.02;;;17.30;65.70;;;;;;5054129;28;20171;-68
2021/09/30 04:32:25;;;;;;;1.67;0.80;;;17.30;65.70;;;;;;5055730;28;20182;-68
2021/09/30 04:34:51;;;;;;;1.92;1.10;;;17.30;65.70;;;;;;5055161;28;20206;-67
2021/09/30 04:37:17;;;;;;;2.25;1.17;;;17.30;65.70;;;;;;5054987;28;20176;-67
2021/09/30 04:39:42;;;;;;;2.10;1.13;;;17.30;65.70;;;;;;5055271;28;20179;-67
2021/09/30 04:42:08;;;;;;;1.20;0.73;;;17.30;65.70;;;;;;5055275;28;20171;-68
2021/09/30 04:44:33;;;;;;;1.48;1.05;;;17.30;65.70;;;;;;5054713;28;20175;-67
2021/09/30 04:46:59;;;;;;;1.08;0.82;;;17.30;65.70;;;;;;5054809;28;20669;-67
2021/09/30 04:49:24;;;;;;;1.10;0.80;;;17.30;65.70;;;;;;5054723;28;20194;-67
2021/09/30 04:51:50;;;;;;;1.88;0.88;;;17.30;65.70;;;;;;5054877;28;20186;-68
2021/09/30 04:54:15;;;;;;;2.33;0.98;;;17.30;65.70;;;;;;5055129;28;20634;-68
2021/09/30 04:56:41;;;;;;;1.52;0.90;;;17.30;65.70;;;;;;5054569;28;20175;-69
2021/09/30 04:59:07;;;;;;;1.08;0.80;;;17.30;65.80;;;;;;5054798;28;20179;-70
2021/09/30 05:01:33;;;;;;;0.73;0.60;;;17.30;65.70;;;;;;5055148;28;20254;-70
2021/09/30 05:03:59;;;;;;;1.23;0.80;;;17.30;65.70;;;;;;5053901;28;20637;-70
2021/09/30 05:06:24;;;;;;;0.95;0.85;;;17.30;65.70;;;;;;5054974;28;20241;-67
2021/09/30 05:08:50;;;;;;;1.95;1.02;;;17.30;65.70;;;;;;5054529;28;20198;-66
2021/09/30 05:11:16;;;;;;;0.90;0.70;;;17.30;65.70;;;;;;5054176;28;20666;-66
2021/09/30 05:13:43;;;;;;;1.38;0.80;;;17.40;65.60;;;;;;5054764;28;20172;-67
2021/09/30 05:16:10;;;;;;;1.05;0.80;;;17.40;65.60;;;;;;5054440;28;20261;-67
2021/09/30 05:18:36;;;;;;;1.02;0.70;;;17.40;65.50;;;;;;5053934;28;20654;-68
2021/09/30 05:21:03;;;;;;;1.13;0.77;;;17.40;65.40;;;;;;5054407;28;20179;-68
2021/09/30 05:23:28;;;;;;;2.60;1.08;;;17.50;65.50;;;;;;5054513;28;20230;-69
2021/09/30 05:25:54;;;;;;;1.80;1.17;;;17.40;65.40;;;;;;5053584;28;20203;-69
2021/09/30 05:28:19;;;;;;;1.20;0.80;;;17.50;65.50;;;;;;5054482;28;20696;-70
2021/09/30 05:30:45;;;;;;;1.50;1.10;;;17.40;65.50;;;;;;5054341;28;20262;-69
2021/09/30 05:33:10;;;;;;;2.08;1.23;;;17.40;65.50;;;;;;5053394;28;20540;-69
2021/09/30 05:35:36;;;;;;;0.93;0.90;;;17.40;65.50;;;;;;5054447;28;20167;-69
2021/09/30 05:38:01;;;;;;;1.70;0.95;;;17.40;65.40;;;;;;5054045;28;20179;-68
2021/09/30 05:40:30;;;;;;;1.55;0.90;;;17.40;65.30;;;;;;5052852;28;20164;-68
2021/09/30 05:42:57;;;;;;;2.20;0.95;;;17.40;65.40;;;;;;5054009;28;20549;-67
2021/09/30 05:45:23;;;;;;;1.63;0.88;;;17.40;65.30;;;;;;5054307;28;20244;-67
2021/09/30 05:47:49;;;;;;;1.25;0.80;;;17.40;65.30;;;;;;5053231;28;20562;-68
2021/09/30 05:50:15;;;;;;;1.95;0.85;;;17.50;65.40;;;;;;5054221;28;20530;-67
2021/09/30 05:52:40;;;;;;;2.95;1.02;;;17.50;65.40;;;;;;5053601;28;20656;-68
2021/09/30 05:55:06;;;;;;;1.58;0.77;;;17.40;65.30;;;;;;5053764;28;20642;-68
2021/09/30 05:57:32;;;;;;;1.52;1.13;;;17.40;65.40;;;;;;5053826;28;20236;-68
2021/09/30 06:00:09;;;;;;;1.48;0.82;;;17.40;65.40;;;;;;5051679;28;20217;-69
2021/09/30 06:08:59;;;;;;;0.98;0.80;;;17.40;65.20;;;;;;5052656;28;20214;-68
2021/09/30 06:13:36;;;;;;;1.25;0.80;;;17.50;65.20;;;;;;5053611;28;20217;-67
2021/09/30 06:16:07;;;;;;;1.83;0.98;;;17.50;65.10;;;;;;5052706;28;20179;-67
2021/09/30 06:18:32;;;;;;;1.58;0.85;;;17.50;65.10;;;;;;5053409;28;20244;-68
2021/09/30 06:20:58;;;;;;;1.33;0.80;;;17.50;65.10;;;;;;5052668;28;20630;-68
2021/09/30 06:23:23;;;;;;;1.67;1.05;;;17.50;65.10;;;;;;5053389;28;20258;-68
2021/09/30 06:25:49;;;;;;;1.85;0.90;;;17.50;65.00;;;;;;5053175;28;20203;-69
2021/09/30 06:28:15;;;;;;;1.13;0.80;;;17.50;65.10;;;;;;5052751;28;20227;-70
2021/09/30 06:30:41;;;;;;;1.48;1.00;;;17.50;65.00;;;;;;5053463;28;20193;-69
2021/09/30 06:33:06;;;;;;;1.75;1.08;;;17.50;65.00;;;;;;5053017;28;20266;-68
2021/09/30 06:35:32;;;;;;;2.28;1.00;;;17.50;65.10;;;;;;5052824;28;20201;-68
2021/09/30 06:37:57;;;;;;;1.63;1.10;;;17.50;65.00;;;;;;5052931;28;20202;-69
2021/09/30 06:40:23;;;;;;;2.08;1.13;;;17.60;65.00;;;;;;5053101;28;20701;-69
2021/09/30 06:42:48;;;;;;;1.05;0.85;;;17.60;65.00;;;;;;5052286;28;20725;-66
2021/09/30 06:45:14;;;;;;;0.80;0.80;;;17.60;65.00;;;;;;5053056;28;20204;-66
2021/09/30 06:47:40;;;;;;;2.08;1.00;;;17.60;65.00;;;;;;5052876;28;20209;-67
2021/09/30 06:50:07;;;;;;;1.00;0.82;;;17.60;65.00;;;;;;5051950;28;20178;-66
2021/09/30 06:52:32;;;;;;;1.27;0.93;;;17.60;64.90;;;;;;5052937;28;20183;-67
2021/09/30 06:54:58;;;;;;;3.38;1.23;;;17.60;64.90;;;;;;5052826;28;20221;-66
2021/09/30 06:57:27;;;;;;;1.13;0.90;;;17.70;64.90;;;;;;5052209;28;20225;-67
2021/09/30 06:59:53;;;;;;;1.38;0.80;;;17.60;64.60;;;;;;5052778;28;20187;-68
2021/09/30 07:02:22;;;;;;;1.75;1.20;;;17.70;64.70;;;;;;5052898;28;20265;-68
2021/09/30 07:04:47;;;;;;;3.05;1.10;;;17.70;64.70;;;;;;5050886;28;20178;-69
2021/09/30 07:07:13;;;;;;;1.50;0.75;;;17.80;65.50;;;;;;5051648;28;20211;-68
2021/09/30 07:09:39;;;;;;;1.10;1.00;;;17.80;64.60;;;;;;5051838;28;20566;-68
2021/09/30 07:12:04;;;;;;;1.02;0.68;;;17.80;64.40;;;;;;5051819;28;20175;-68
2021/09/30 07:14:30;;;;;;;1.90;1.00;;;17.80;64.30;;;;;;5052771;28;20206;-67
2021/09/30 07:16:55;;;;;;;2.35;1.10;;;17.90;64.30;;;;;;5052386;28;20748;-68
2021/09/30 07:19:21;;;;;;;2.00;0.95;;;17.90;64.20;;;;;;5052304;28;20668;-68
2021/09/30 07:21:46;;;;;;;1.65;0.85;;;17.90;64.20;;;;;;5052872;28;20175;-68
2021/09/30 07:24:12;;;;;;;0.90;0.90;;;17.90;64.20;;;;;;5051510;28;20232;-69
2021/09/30 07:26:37;;;;;;;3.50;1.48;;;17.90;64.10;;;;;;5052717;28;20211;-71
2021/09/30 07:29:03;;;;;;;1.70;1.10;;;18.00;64.20;;;;;;5052307;28;20234;-68
2021/09/30 07:31:28;;;;;;;1.63;0.95;;;18.00;64.10;;;;;;5051333;28;20210;-66
2021/09/30 07:33:54;;;;;;;3.78;1.27;;;18.10;64.20;;;;;;5052316;28;20175;-68
2021/09/30 07:36:20;;;;;;;1.42;1.20;;;18.10;64.20;;;;;;5052671;28;20171;-69
2021/09/30 07:38:46;;;;;;;1.75;1.10;;;18.10;64.00;;;;;;5051892;28;20250;-71
2021/09/30 07:41:11;;;;;;;1.20;1.05;;;18.20;64.00;;;;;;5052314;28;20684;-68
2021/09/30 07:43:37;;;;;;;1.17;0.77;;;18.20;64.10;;;;;;5052381;28;20642;-67
2021/09/30 07:46:02;;;;;;;1.50;1.00;;;18.20;64.20;;;;;;5051414;28;20171;-68
2021/09/30 07:48:28;;;;;;;5.60;1.33;;;18.20;64.10;;;;;;5052361;28;20658;-64
2021/09/30 07:50:53;;;;;;;1.73;1.00;;;18.20;64.30;;;;;;5052029;28;20244;-67
2021/09/30 07:53:19;;;;;;;3.25;1.52;;;18.30;64.30;;;;;;5051695;28;20183;-67
2021/09/30 07:55:45;;;;;;;3.95;1.60;;;18.30;64.20;;;;;;5052349;28;20175;-67
2021/09/30 07:58:10;;;;;;;5.63;1.30;;;18.30;64.20;;;;;;5051795;28;20638;-67
2021/09/30 08:00:37;;;;;;;3.60;1.25;;;18.30;64.30;;;;;;5051590;28;20185;-67
2021/09/30 08:03:04;;;;;;;5.95;1.70;;;18.30;64.20;;;;;;5052185;28;20229;-68
2021/09/30 08:05:29;;;;;;;3.97;1.38;;;18.30;64.30;;;;;;5055743;28;20179;-69
2021/09/30 08:07:55;;;;;;;3.88;1.42;;;18.30;64.50;;;;;;5055162;28;20550;-67
2021/09/30 08:10:20;;;;;;;3.83;1.50;;;18.30;64.50;;;;;;5056107;28;20193;-67
2021/09/30 08:12:46;;;;;;;2.75;1.10;;;18.30;64.30;;;;;;5056091;28;20199;-67
2021/09/30 08:15:11;;;;;;;2.72;1.27;;;18.40;64.30;;;;;;5054825;28;20633;-67
2021/09/30 08:17:37;;;;;;;3.85;1.63;;;18.40;64.10;;;;;;5055999;28;20175;-67
2021/09/30 08:20:03;;;;;;;2.25;1.30;;;18.40;64.10;;;;;;5055641;28;20167;-68
2021/09/30 08:22:29;;;;;;;4.40;1.67;;;18.40;63.90;;;;;;5054948;28;20231;-69
2021/09/30 08:24:54;;;;;;;3.90;1.40;;;18.40;63.90;;;;;;5055509;28;20182;-69
2021/09/30 08:27:20;;;;;;;4.65;1.80;;;18.40;63.90;;;;;;5054810;28;20218;-67
2021/09/30 08:29:45;;;;;;;3.58;1.40;;;18.40;63.60;;;;;;5055605;28;20568;-66
2021/09/30 08:32:11;;;;;;;3.10;1.30;;;18.40;63.60;;;;;;5055517;28;20179;-66
2021/09/30 08:34:36;;;;;;;4.30;1.65;;;18.40;63.80;;;;;;5055010;28;20178;-67
2021/09/30 08:37:02;;;;;;;3.50;1.58;;;18.40;63.80;;;;;;5055363;28;20175;-67
2021/09/30 08:39:27;;;;;;;2.00;1.40;;;18.40;63.90;;;;;;5055558;28;20175;-68
2021/09/30 08:41:54;;;;;;;4.53;1.45;;;18.40;63.90;;;;;;5054443;28;20202;-68
2021/09/30 08:44:20;;;;;;;3.85;1.35;;;18.50;63.90;;;;;;5055350;28;20183;-67
2021/09/30 08:46:45;;;;;;;3.25;1.35;;;18.50;64.00;;;;;;5055823;28;20206;-67
2021/09/30 08:49:11;;;;;;;4.72;1.90;;;18.60;64.10;;;;;;5054238;28;20228;-67
2021/09/30 08:51:36;;;;;;;3.58;1.50;;;18.60;64.00;;;;;;5055386;28;20649;-68
2021/09/30 08:54:03;;;;;;;3.30;1.23;;;18.60;63.90;;;;;;5054964;28;20171;-68
2021/09/30 08:56:33;;;;;;;4.32;1.40;;;18.60;63.80;;;;;;5054390;28;20179;-67
2021/09/30 08:59:12;;;;;;;3.05;1.20;;;18.60;63.70;;;;;;5054661;28;20201;-69
2021/09/30 09:01:37;;;;;;;3.40;1.23;;;18.60;63.60;;;;;;5053600;28;20175;-64
2021/09/30 09:04:15;;;;;;;3.42;1.40;;;18.60;63.50;;;;;;5052463;28;20183;-65
2021/09/30 09:06:41;;;;;;;7.10;2.03;;;18.70;63.70;;;;;;5049785;28;20217;-65
2021/09/30 09:09:23;;;;;;;4.65;1.52;;;18.70;63.70;;;;;;5053446;28;20167;-63
2021/09/30 09:11:49;;;;;;;4.68;1.48;;;18.70;63.70;;;;;;5051283;28;20268;-62
2021/09/30 09:14:29;;;;;;;4.72;1.50;;;18.80;63.70;;;;;;5053275;28;20634;-63
2021/09/30 09:16:59;;;;;;;5.50;1.30;;;18.80;63.70;;;;;;5051550;28;20194;-63
2021/09/30 09:19:29;;;;;;;5.82;2.15;;;18.80;63.70;;;;;;5053535;28;20251;-64
2021/09/30 09:21:54;;;;;;;3.88;1.45;;;18.80;63.70;;;;;;5053163;28;20175;-71
2021/09/30 09:24:20;;;;;;;3.28;1.38;;;18.80;63.70;;;;;;5050184;28;20215;-65
2021/09/30 09:26:45;;;;;;;6.72;1.63;;;18.80;63.80;;;;;;5058643;28;20198;-64
2021/09/30 09:29:15;;;;;;;3.08;1.30;;;18.80;63.90;;;;;;5067198;28;20185;-63
2021/09/30 09:31:42;;;;;;;5.35;1.48;;;18.80;63.80;;;;;;5057779;28;20186;-63
2021/09/30 09:34:19;;;;;;;3.22;1.50;;;18.80;63.80;;;;;;5055044;28;20194;-63
2021/09/30 09:36:47;;;;;;;3.03;1.15;;;18.80;63.90;;;;;;5074337;28;20528;-64
2021/09/30 09:39:13;;;;;;;3.42;1.75;;;18.70;63.90;;;;;;5073819;28;20178;-64
2021/09/30 09:41:38;;;;;;;4.22;1.70;;;18.80;64.10;;;;;;5074358;28;20205;-64
2021/09/30 09:44:05;;;;;;;2.60;1.20;;;18.70;64.00;;;;;;5061262;28;20179;-65
2021/09/30 09:46:31;;;;;;;2.63;1.20;;;18.70;64.00;;;;;;5053353;28;20172;-65
2021/09/30 09:49:00;;;;;;;1.75;1.10;;;18.70;64.10;;;;;;5053621;28;20213;-64
2021/09/30 09:51:32;;;;;;;3.65;1.38;;;18.60;64.10;;;;;;5054056;28;20175;-64
2021/09/30 09:53:58;;;;;;;4.50;1.38;;;18.70;64.20;;;;;;5051341;28;20183;-63
2021/09/30 09:56:23;;;;;;;2.50;1.00;;;18.60;64.10;;;;;;5053815;28;20224;-64
2021/09/30 09:58:58;;;;;;;2.00;1.17;;;18.60;64.10;;;;;;5052848;28;20179;-64
2021/09/30 10:01:40;;;;;;;2.75;1.10;;;18.60;64.10;;;;;;5060718;28;20195;-61
2021/09/30 10:04:06;;;;;;;2.83;1.42;;;18.70;64.00;;;;;;5053661;28;20549;-62
2021/09/30 10:06:32;;;;;;;4.00;1.70;;;18.70;63.90;;;;;;5051727;28;20645;-63
2021/09/30 10:08:58;;;;;;;2.85;1.50;;;18.80;63.70;;;;;;5053520;28;20270;-62
2021/09/30 10:11:26;;;;;;;3.40;1.50;;;18.80;63.60;;;;;;5053627;28;20257;-60
2021/09/30 10:13:52;;;;;;;3.83;1.58;;;18.80;63.50;;;;;;5052587;28;20592;-61
2021/09/30 10:16:23;;;;;;;5.15;1.20;;;18.90;63.40;;;;;;5053658;28;20178;-62
2021/09/30 10:18:49;;;;;;;6.72;1.92;;;18.90;63.40;;;;;;5053365;28;20259;-63
2021/09/30 10:21:14;;;;;;;5.50;1.88;;;19.00;63.40;;;;;;5051638;28;20606;-63
2021/09/30 10:23:40;;;;;;;5.45;2.05;;;19.00;63.40;;;;;;5053345;28;20223;-63
2021/09/30 10:26:15;;;;;;;4.90;1.50;;;19.00;63.40;;;;;;5051900;28;20175;-62
2021/09/30 10:28:42;;;;;;;6.15;1.50;;;19.00;63.50;;;;;;5051250;28;20215;-62
2021/09/30 10:31:25;;;;;;;3.03;1.08;;;19.00;63.60;;;;;;5053209;28;20186;-62
2021/09/30 10:33:52;;;;;;;4.07;1.17;;;18.90;63.60;;;;;;5053000;28;20174;-62
2021/09/30 10:36:46;;;;;;;9.60;2.30;;;18.90;63.70;;;;;;5052812;28;20167;-62
2021/09/30 10:39:16;;;;;;;3.13;1.20;;;18.90;63.70;;;;;;5052805;28;20183;-66
2021/09/30 10:41:41;;;;;;;3.78;1.40;;;19.00;63.60;;;;;;5052549;28;20183;-67
2021/09/30 10:44:18;;;;;;;3.55;1.17;;;18.90;63.60;;;;;;5052987;28;20281;-69
2021/09/30 10:46:45;;;;;;;2.80;1.10;;;18.90;63.60;;;;;;5053169;28;20373;-68
2021/09/30 10:49:27;;;;;;;4.05;1.20;;;18.90;63.70;;;;;;5052014;28;20201;-68
2021/09/30 10:52:11;;;;;;;4.65;1.33;;;18.90;63.60;;;;;;5052915;28;20176;-68
2021/09/30 10:54:39;;;;;;;3.30;1.63;;;18.90;63.50;;;;;;5052961;28;20660;-68
2021/09/30 10:57:37;;;;;;;4.88;1.67;;;19.00;63.30;;;;;;5051834;28;20672;-67
2021/09/30 11:00:12;;;;;;;1.92;1.13;;;19.10;63.20;;;;;;5052795;28;20162;-68
2021/09/30 11:03:01;;;;;;;4.20;1.17;;;19.20;63.00;;;;;;5052317;28;20285;-68
2021/09/30 11:05:30;;;;;;;3.40;1.40;;;19.20;62.90;;;;;;5052689;28;20175;-68
2021/09/30 11:08:20;;;;;;;2.42;1.20;;;19.20;62.90;;;;;;5052301;28;20199;-67
2021/09/30 11:11:07;;;;;;;3.58;1.20;;;19.20;62.90;;;;;;5052195;28;20224;-68
2021/09/30 11:13:38;;;;;;;2.38;1.10;;;19.10;63.10;;;;;;5052463;28;20507;-67
2021/09/30 11:16:15;;;;;;;2.70;1.08;;;19.10;63.30;;;;;;5051304;28;20175;-67
2021/09/30 11:19:21;;;;;;;2.85;1.10;;;19.00;63.20;;;;;;5052482;28;20182;-68
2021/09/30 11:21:46;;;;;;;4.38;1.30;;;19.00;63.30;;;;;;5052793;28;20179;-69
2021/09/30 11:24:35;;;;;;;3.00;1.15;;;18.90;63.20;;;;;;5051428;28;20302;-69
2021/09/30 11:27:05;;;;;;;2.85;1.20;;;18.90;63.30;;;;;;5052005;28;20218;-68
2021/09/30 11:29:31;;;;;;;2.55;1.20;;;18.90;63.20;;;;;;5052756;28;20179;-68
2021/09/30 11:31:56;;;;;;;3.17;1.38;;;19.00;63.20;;;;;;5051405;28;20171;-67
2021/09/30 11:34:38;;;;;;;1.73;1.00;;;19.00;63.20;;;;;;5052514;28;20167;-67
2021/09/30 11:37:14;;;;;;;2.00;1.00;;;19.00;63.10;;;;;;5052210;28;20186;-68
2021/09/30 11:39:39;;;;;;;2.65;1.10;;;18.90;63.10;;;;;;5054915;28;20186;-68
2021/09/30 11:42:05;;;;;;;2.55;1.17;;;18.90;63.20;;;;;;5056444;28;20180;-69
2021/09/30 11:44:30;;;;;;;2.22;1.02;;;18.90;63.20;;;;;;5055914;28;20265;-70
2021/09/30 11:46:57;;;;;;;1.30;1.10;;;18.90;63.20;;;;;;5056210;28;20203;-69
2021/09/30 11:49:23;;;;;;;2.30;1.23;;;18.90;63.20;;;;;;5056403;28;20297;-69
2021/09/30 11:51:49;;;;;;;3.55;1.17;;;18.90;63.10;;;;;;5055257;28;20277;-68
2021/09/30 11:54:16;;;;;;;2.22;0.90;;;18.90;63.10;;;;;;5056464;28;20274;-68
2021/09/30 11:56:41;;;;;;;3.20;1.30;;;18.80;63.00;;;;;;5056170;28;20555;-68
2021/09/30 11:59:07;;;;;;;3.40;1.10;;;18.80;63.20;;;;;;5055130;28;20194;-68
2021/09/30 12:01:46;;;;;;;2.08;0.90;;;18.80;63.20;;;;;;5056443;28;20262;-68
2021/09/30 12:04:12;;;;;;;4.47;1.55;;;18.80;63.10;;;;;;5056081;28;20179;-68
2021/09/30 12:06:40;;;;;;;2.30;1.00;;;18.80;63.10;;;;;;5055411;28;20183;-67
2021/09/30 12:09:07;;;;;;;1.80;1.05;;;18.80;63.00;;;;;;5055948;28;20241;-67
2021/09/30 12:11:39;;;;;;;1.23;0.80;;;18.80;62.90;;;;;;5056042;28;20174;-67
2021/09/30 12:14:07;;;;;;;4.55;1.30;;;18.80;62.90;;;;;;5055005;28;20179;-69
2021/09/30 12:16:32;;;;;;;3.25;0.98;;;18.90;62.80;;;;;;5055953;28;20175;-68
2021/09/30 12:18:59;;;;;;;2.28;0.93;;;18.90;62.60;;;;;;5055655;28;20210;-68
2021/09/30 12:21:39;;;;;;;2.75;0.98;;;18.90;62.60;;;;;;5055294;28;20179;-70
2021/09/30 12:24:05;;;;;;;1.88;0.82;;;18.90;62.50;;;;;;5055251;28;20268;-69
2021/09/30 12:26:30;;;;;;;2.17;0.82;;;18.90;62.60;;;;;;5055102;28;20175;-69
2021/09/30 12:28:59;;;;;;;3.25;1.40;;;18.90;62.50;;;;;;5055419;28;20535;-68
2021/09/30 12:31:25;;;;;;;2.83;0.80;;;18.90;62.50;;;;;;5055564;28;20628;-67
2021/09/30 12:33:50;;;;;;;1.98;1.10;;;18.90;62.50;;;;;;5054572;28;20215;-67
2021/09/30 12:36:19;;;;;;;1.25;0.80;;;18.90;62.50;;;;;;5055760;28;20179;-69
2021/09/30 12:39:00;;;;;;;3.55;1.08;;;18.90;62.50;;;;;;5055549;28;20175;-68
2021/09/30 12:41:27;;;;;;;0.93;0.75;;;18.90;62.50;;;;;;5054747;28;20179;-70
2021/09/30 12:43:52;;;;;;;1.90;0.90;;;18.90;62.50;;;;;;5055012;28;20183;-69
2021/09/30 12:46:19;;;;;;;2.47;1.20;;;18.80;62.40;;;;;;5055289;28;20167;-71
2021/09/30 12:48:48;;;;;;;2.88;1.10;;;18.80;62.30;;;;;;5054635;28;20336;-66
2021/09/30 12:51:15;;;;;;;2.50;0.90;;;18.80;62.30;;;;;;5055192;28;20178;-65
2021/09/30 12:53:45;;;;;;;2.92;1.05;;;18.80;62.10;;;;;;5054628;28;20195;-69
2021/09/30 12:56:11;;;;;;;5.30;1.10;;;18.80;62.10;;;;;;5057160;28;20216;-68
2021/09/30 12:58:39;;;;;;;2.92;1.05;;;18.80;62.10;;;;;;5068175;28;20561;-69
2021/09/30 13:01:23;;;;;;;2.15;0.90;;;18.80;62.00;;;;;;5054827;28;20178;-71
2021/09/30 13:04:16;;;;;;;4.75;1.00;;;18.80;62.10;;;;;;5048191;28;20626;-69
2021/09/30 13:06:50;;;;;;;4.22;1.17;;;18.80;62.00;;;;;;5055118;28;20178;-69
2021/09/30 13:09:24;;;;;;;7.15;1.23;;;18.80;62.10;;;;;;5053000;28;20179;-68
2021/09/30 13:11:51;;;;;;;2.30;1.30;;;18.80;62.10;;;;;;5071345;28;20182;-68
2021/09/30 13:14:28;;;;;;;2.33;1.40;;;18.80;62.00;;;;;;5054675;28;20567;-68
2021/09/30 13:17:05;;;;;;;1.45;1.00;;;18.80;62.10;;;;;;5053516;28;20218;-68
2021/09/30 13:19:59;;;;;;;2.13;0.80;;;18.80;62.10;;;;;;5054726;28;20228;-68
2021/09/30 13:22:35;;;;;;;3.00;0.90;;;18.70;62.20;;;;;;5054685;28;20305;-70
2021/09/30 13:25:06;;;;;;;3.20;0.95;;;18.70;62.30;;;;;;5053714;28;20171;-69
2021/09/30 13:27:35;;;;;;;3.70;1.05;;;18.70;63.20;;;;;;5060513;28;20565;-68
2021/09/30 13:30:06;;;;;;;1.83;0.80;;;18.60;62.20;;;;;;5073971;28;20171;-67
2021/09/30 13:32:31;;;;;;;2.38;1.10;;;18.70;62.30;;;;;;5074511;28;20181;-67
2021/09/30 13:34:57;;;;;;;1.30;0.80;;;18.60;62.10;;;;;;5074219;28;20174;-67
2021/09/30 13:37:23;;;;;;;5.35;1.33;;;18.60;62.20;;;;;;5073929;28;20261;-69
2021/09/30 13:39:48;;;;;;;2.17;1.10;;;18.70;62.40;;;;;;5074113;28;20167;-69
2021/09/30 13:42:14;;;;;;;2.28;1.13;;;18.70;62.30;;;;;;5068911;28;20171;-70
2021/09/30 13:44:40;;;;;;;2.47;1.00;;;18.60;62.20;;;;;;5053657;28;20536;-69
2021/09/30 13:47:05;;;;;;;2.72;0.95;;;18.60;62.40;;;;;;5054071;28;20226;-69
2021/09/30 13:49:31;;;;;;;1.60;0.90;;;18.60;62.20;;;;;;5054498;28;20637;-69
2021/09/30 13:51:56;;;;;;;3.15;0.90;;;18.60;62.20;;;;;;5053072;28;20571;-68
2021/09/30 13:54:22;;;;;;;1.85;1.10;;;18.60;62.40;;;;;;5054053;28;20201;-67
2021/09/30 13:56:47;;;;;;;3.22;1.50;;;18.60;62.20;;;;;;5053684;28;20184;-67
2021/09/30 13:59:13;;;;;;;2.00;1.00;;;18.60;62.20;;;;;;5053504;28;20171;-68
2021/09/30 14:01:39;;;;;;;2.20;0.85;;;18.60;62.20;;;;;;5059092;28;20178;-68
2021/09/30 14:04:04;;;;;;;2.47;1.20;;;18.50;62.10;;;;;;5073756;28;20560;-68
2021/09/30 14:06:30;;;;;;;2.95;1.00;;;18.60;62.20;;;;;;5073112;28;20179;-69
2021/09/30 14:08:55;;;;;;;2.00;0.88;;;18.50;62.20;;;;;;5073375;28;20264;-68
2021/09/30 14:11:22;;;;;;;2.15;1.00;;;18.60;62.20;;;;;;5073567;28;20173;-67
2021/09/30 14:13:48;;;;;;;3.17;0.82;;;18.50;62.20;;;;;;5072850;28;20182;-67
2021/09/30 14:16:14;;;;;;;1.42;0.88;;;18.50;62.30;;;;;;5069771;28;20504;-67
2021/09/30 14:18:40;;;;;;;1.23;0.80;;;18.50;62.40;;;;;;5053721;28;20183;-68
2021/09/30 14:21:05;;;;;;;2.50;0.95;;;18.50;62.40;;;;;;5051358;28;20217;-69
2021/09/30 14:23:31;;;;;;;1.20;0.75;;;18.40;62.30;;;;;;5053432;28;20231;-73
2021/09/30 14:25:58;;;;;;;2.75;1.10;;;18.50;62.40;;;;;;5053028;28;20174;-68
2021/09/30 14:28:23;;;;;;;4.45;1.55;;;18.40;62.40;;;;;;5052994;28;20215;-67
2021/09/30 14:30:49;;;;;;;3.35;1.23;;;18.50;62.10;;;;;;5057999;28;20171;-67
2021/09/30 14:33:14;;;;;;;2.13;0.90;;;18.40;62.30;;;;;;5052703;28;20175;-66
2021/09/30 14:35:40;;;;;;;4.60;1.02;;;18.40;62.30;;;;;;5052517;28;20198;-67
2021/09/30 14:38:05;;;;;;;2.92;1.10;;;18.40;62.50;;;;;;5052484;28;20644;-66
2021/09/30 14:40:31;;;;;;;5.40;1.20;;;18.50;62.70;;;;;;5052019;28;20186;-67
2021/09/30 14:42:56;;;;;;;1.98;0.82;;;18.50;62.70;;;;;;5052606;28;20193;-68
2021/09/30 14:45:22;;;;;;;3.05;0.88;;;18.50;62.60;;;;;;5052397;28;20231;-68
2021/09/30 14:47:47;;;;;;;1.38;0.98;;;18.50;62.60;;;;;;5051165;28;20210;-68
2021/09/30 14:50:13;;;;;;;1.65;1.10;;;18.50;62.60;;;;;;5052394;28;20167;-69
2021/09/30 14:52:38;;;;;;;2.38;0.73;;;18.50;62.60;;;;;;5052406;28;20175;-69
2021/09/30 14:55:04;;;;;;;2.63;1.15;;;18.50;62.60;;;;;;5051245;28;20171;-71
2021/09/30 14:57:30;;;;;;;2.58;1.17;;;18.50;62.70;;;;;;5052242;28;20187;-67
2021/09/30 14:59:56;;;;;;;3.05;1.00;;;18.50;62.60;;;;;;5052235;28;20660;-66
2021/09/30 15:02:21;;;;;;;2.63;0.93;;;18.50;62.70;;;;;;5063884;28;20655;-67
2021/09/30 15:04:47;;;;;;;2.25;1.10;;;18.50;62.70;;;;;;5073078;28;20174;-66
2021/09/30 15:07:12;;;;;;;4.05;0.90;;;18.50;62.60;;;;;;5073059;28;20237;-66
2021/09/30 15:09:38;;;;;;;3.58;1.25;;;18.50;62.70;;;;;;5072168;28;20178;-66
2021/09/30 15:12:03;;;;;;;2.63;1.15;;;18.50;62.50;;;;;;5072409;28;20166;-66
2021/09/30 15:14:29;;;;;;;1.83;1.17;;;18.50;62.50;;;;;;5072542;28;20571;-66
2021/09/30 15:17:01;;;;;;;2.97;1.05;;;18.50;62.40;;;;;;5061894;28;20208;-67
2021/09/30 15:19:46;;;;;;;2.25;1.10;;;18.50;62.40;;;;;;5052604;28;20559;-66
2021/09/30 15:22:12;;;;;;;3.28;0.90;;;18.50;62.30;;;;;;5052449;28;20216;-67
2021/09/30 15:24:39;;;;;;;1.92;1.00;;;18.40;62.30;;;;;;5051979;28;20291;-67
2021/09/30 15:27:05;;;;;;;2.80;1.13;;;18.50;62.40;;;;;;5052419;28;20214;-68
2021/09/30 15:29:30;;;;;;;1.58;0.82;;;18.40;62.30;;;;;;5050676;28;20652;-66
2021/09/30 15:31:56;;;;;;;4.25;1.10;;;18.40;62.30;;;;;;5052241;28;20174;-66
2021/09/30 15:34:21;;;;;;;2.58;1.00;;;18.40;62.30;;;;;;5052540;28;20179;-70
2021/09/30 15:36:46;;;;;;;3.93;1.20;;;18.40;62.30;;;;;;5051130;28;20447;-68